createdAt,value
2022-09-03T00:00:16.444Z,100852.59
2022-09-03T00:04:37.141Z,100861.59
2022-09-03T00:09:00.004Z,100861.59
2022-09-03T00:13:17.534Z,100855.66
2022-09-03T00:17:41.175Z,100863.56
2022-09-03T00:21:58.834Z,100863.56
2022-09-03T00:26:13.313Z,100857.63
2022-09-03T00:30:24.987Z,100859.78
2022-09-03T00:34:41.356Z,100869.88
2022-09-03T00:38:52.970Z,100856.56
2022-09-03T00:43:18.689Z,100863.63
2022-09-03T00:48:03.554Z,100862.53
2022-09-03T00:52:45.888Z,100865.81
2022-09-03T00:57:25.636Z,100861.47
2022-09-03T01:02:01.369Z,100860.41
2022-09-03T01:06:29.243Z,100848.38
2022-09-03T01:10:46.875Z,100857.13
2022-09-03T01:15:31.334Z,100849.75
2022-09-03T01:20:12.524Z,100867.16
2022-09-03T01:24:31.284Z,100875.31
2022-09-03T01:29:12.046Z,100866.09
2022-09-03T01:33:34.021Z,100870.97
2022-09-03T01:38:04.344Z,100866.63
2022-09-03T01:42:29.282Z,100875.06
2022-09-03T01:46:41.965Z,100872.34
2022-09-03T01:51:02.401Z,100873.69
2022-09-03T01:55:36.796Z,100871.22
2022-09-03T01:59:58.965Z,100869.84
2022-09-03T02:04:20.522Z,100861.41
2022-09-03T02:08:32.572Z,100862.75
2022-09-03T02:12:52.583Z,100863.28
2022-09-03T02:17:06.982Z,100860.84
2022-09-03T02:21:21.218Z,100858.94
2022-09-03T02:25:37.990Z,100857.28
2022-09-03T02:29:49.628Z,100862.97
2022-09-03T02:34:01.290Z,100873.03
2022-09-03T02:38:18.090Z,100863.78
2022-09-03T02:42:29.746Z,100865.06
2022-09-03T02:46:46.889Z,100862.91
2022-09-03T02:50:59.076Z,100863.41
2022-09-03T02:55:10.754Z,100861.00
2022-09-03T02:59:22.968Z,100857.69
2022-09-03T03:03:35.050Z,100855.78
2022-09-03T03:07:46.690Z,100845.44
2022-09-03T03:11:58.356Z,100848.41
2022-09-03T03:16:10.433Z,100840.25
2022-09-03T03:20:22.011Z,100837.78
2022-09-03T03:24:33.652Z,100848.09
2022-09-03T03:28:46.873Z,100849.16
2022-09-03T03:32:58.552Z,100846.44
2022-09-03T03:37:10.130Z,100844.22
2022-09-03T03:41:24.601Z,100850.22
2022-09-03T03:45:36.201Z,100838.50
2022-09-03T03:49:48.045Z,100836.03
2022-09-03T03:54:04.332Z,100839.00
2022-09-03T03:58:16.787Z,100840.09
2022-09-03T04:02:28.483Z,100841.94
2022-09-03T04:06:40.151Z,100820.75
2022-09-03T04:10:51.888Z,100825.63
2022-09-03T04:15:04.041Z,100833.72
2022-09-03T04:19:15.644Z,100847.03
2022-09-03T04:23:28.201Z,100835.81
2022-09-03T04:27:39.848Z,100837.16
2022-09-03T04:32:10.113Z,100827.34
2022-09-03T04:36:24.671Z,100833.03
2022-09-03T04:40:36.829Z,100819.69
2022-09-03T04:44:48.418Z,100824.03
2022-09-03T04:49:00.624Z,100818.28
2022-09-03T04:53:12.234Z,100820.44
2022-09-03T04:57:25.207Z,100824.22
2022-09-03T05:01:39.281Z,100822.31
2022-09-03T05:05:55.655Z,100830.19
2022-09-03T05:10:20.507Z,100825.03
2022-09-03T05:14:32.151Z,100817.41
2022-09-03T05:18:45.096Z,100831.28
2022-09-03T05:22:57.536Z,100825.84
2022-09-03T05:27:09.125Z,100838.19
2022-09-03T05:31:22.431Z,100835.34
2022-09-03T05:35:34.094Z,100829.72
2022-09-03T05:39:45.785Z,100824.25
2022-09-03T05:43:59.446Z,100831.34
2022-09-03T05:48:11.279Z,100835.88
2022-09-03T05:52:23.509Z,100830.19
2022-09-03T05:56:36.552Z,100838.69
2022-09-03T06:00:48.179Z,100834.50
2022-09-03T06:04:59.953Z,100837.25
2022-09-03T06:09:14.359Z,100844.16
2022-09-03T06:13:26.007Z,100847.28
2022-09-03T06:17:40.544Z,100836.41
2022-09-03T06:21:55.449Z,100850.22
2022-09-03T06:26:12.609Z,100849.81
2022-09-03T06:30:26.740Z,100838.50
2022-09-03T06:34:38.459Z,100844.88
2022-09-03T06:38:54.881Z,100849.41
2022-09-03T06:43:06.488Z,100848.69
2022-09-03T06:47:18.294Z,100855.03
2022-09-03T06:51:32.953Z,100853.22
2022-09-03T06:55:52.387Z,100859.06
2022-09-03T07:00:04.626Z,100862.25
2022-09-03T07:04:19.195Z,100859.72
2022-09-03T07:08:33.371Z,100861.91
2022-09-03T07:12:44.950Z,100853.63
2022-09-03T07:16:56.544Z,100861.31
2022-09-03T07:21:11.297Z,100861.22
2022-09-03T07:25:26.157Z,100857.03
2022-09-03T07:29:37.866Z,100861.03
2022-09-03T07:33:49.449Z,100864.50
2022-09-03T07:38:01.047Z,100858.63
2022-09-03T07:42:12.749Z,100862.22
2022-09-03T07:46:27.296Z,100849.78
2022-09-03T07:50:40.221Z,100844.09
2022-09-03T07:54:52.031Z,100853.69
2022-09-03T07:59:05.437Z,100855.78
2022-09-03T08:03:17.652Z,100851.97
2022-09-03T08:07:30.474Z,100857.00
2022-09-03T08:11:43.549Z,100854.50
2022-09-03T08:15:56.762Z,100854.66
2022-09-03T08:20:09.045Z,100867.09
2022-09-03T08:24:25.712Z,100864.72
2022-09-03T08:28:38.090Z,100862.59
2022-09-03T08:32:50.416Z,100873.91
2022-09-03T08:37:02.060Z,100867.31
2022-09-03T08:41:16.766Z,100855.91
2022-09-03T08:45:30.285Z,100862.03
2022-09-03T08:50:04.928Z,100861.03
2022-09-03T08:54:18.237Z,100872.81
2022-09-03T08:58:33.630Z,100873.06
2022-09-03T09:03:15.605Z,100864.31
2022-09-03T09:07:41.497Z,100863.25
2022-09-03T09:12:17.784Z,100868.72
2022-09-03T09:16:50.371Z,100860.91
2022-09-03T09:21:20.968Z,100865.28
2022-09-03T09:25:41.684Z,100847.97
2022-09-03T09:29:54.611Z,100867.88
2022-09-03T09:34:08.352Z,100868.41
2022-09-03T09:38:31.988Z,100864.16
2022-09-03T09:42:43.743Z,100862.84
2022-09-03T09:47:08.783Z,100856.63
2022-09-03T09:51:25.826Z,100871.03
2022-09-03T09:55:48.802Z,100862.28
2022-09-03T10:00:18.068Z,100860.22
2022-09-03T10:04:33.381Z,100864.56
2022-09-03T10:08:45.221Z,100859.88
2022-09-03T10:13:08.317Z,100853.94
2022-09-03T10:17:36.893Z,100852.44
2022-09-03T10:22:09.744Z,100850.84
2022-09-03T10:26:29.029Z,100849.66
2022-09-03T10:31:05.314Z,100848.75
2022-09-03T10:35:38.001Z,100847.31
2022-09-03T10:39:58.921Z,100848.53
2022-09-03T10:44:37.658Z,100846.13
2022-09-03T10:49:08.324Z,100837.84
2022-09-03T10:53:51.206Z,100837.09
2022-09-03T10:58:48.144Z,100834.88
2022-09-03T11:03:21.097Z,100832.78
2022-09-03T11:07:40.093Z,100837.09
2022-09-03T11:11:59.603Z,100844.25
2022-09-03T11:16:20.976Z,100838.53
2022-09-03T11:20:33.801Z,100829.91
2022-09-03T11:24:54.411Z,100827.03
2022-09-03T11:29:51.025Z,100813.16
2022-09-03T11:34:09.247Z,100821.22
2022-09-03T11:38:27.247Z,100811.28
2022-09-03T11:42:41.856Z,100811.13
2022-09-03T11:46:58.521Z,100811.38
2022-09-03T11:51:26.722Z,100808.22
2022-09-03T11:56:02.319Z,100800.28
2022-09-03T12:00:21.234Z,100803.03
2022-09-03T12:04:38.866Z,100810.81
2022-09-03T12:09:13.733Z,100791.81
2022-09-03T12:13:47.331Z,100795.94
2022-09-03T12:18:22.360Z,100793.00
2022-09-03T12:22:38.650Z,100790.09
2022-09-03T12:26:50.294Z,100793.06
2022-09-03T12:31:20.267Z,100795.19
2022-09-03T12:40:05.447Z,100792.38
2022-09-03T12:44:29.953Z,100794.44
2022-09-03T12:53:34.138Z,100792.66
2022-09-03T12:57:56.749Z,100788.25
2022-09-03T13:02:23.909Z,100785.41
2022-09-03T13:06:56.171Z,100783.31
2022-09-03T13:11:07.974Z,100797.91
2022-09-03T13:15:23.847Z,100788.44
2022-09-03T13:19:35.825Z,100787.28
2022-09-03T13:24:25.917Z,100793.03
2022-09-03T13:29:02.017Z,100790.84
2022-09-03T13:33:21.634Z,100783.59
2022-09-03T13:37:49.133Z,100797.66
2022-09-03T13:42:13.196Z,100787.88
2022-09-03T13:46:31.473Z,100777.56
2022-09-03T13:50:59.585Z,100783.47
2022-09-03T13:55:27.145Z,100781.44
2022-09-03T14:00:04.891Z,100787.59
2022-09-03T14:04:30.171Z,100784.72
2022-09-03T14:09:23.071Z,100788.13
2022-09-03T14:13:46.475Z,100781.09
2022-09-03T14:18:29.191Z,100785.97
2022-09-03T14:22:59.395Z,100781.00
2022-09-03T14:27:11.261Z,100776.28
2022-09-03T14:31:36.591Z,100778.69
2022-09-03T14:36:02.800Z,100780.78
2022-09-03T14:40:24.164Z,100777.84
2022-09-03T14:45:15.976Z,100771.94
2022-09-03T14:50:03.153Z,100775.31
2022-09-03T14:54:28.703Z,100767.41
2022-09-03T14:59:23.596Z,100782.03
2022-09-03T15:04:00.155Z,100774.09
2022-09-03T15:08:34.843Z,100770.09
2022-09-03T15:12:57.389Z,100770.75
2022-09-03T15:17:30.065Z,100775.72
2022-09-03T15:22:08.398Z,100777.56
2022-09-03T15:26:38.194Z,100776.09
2022-09-03T15:31:02.457Z,100765.59
2022-09-03T15:35:30.775Z,100777.47
2022-09-03T15:39:46.992Z,100778.75
2022-09-03T15:44:01.193Z,100776.22
2022-09-03T15:48:28.519Z,100770.56
2022-09-03T15:53:07.124Z,100781.00
2022-09-03T15:57:28.494Z,100788.28
2022-09-03T16:01:51.051Z,100786.19
2022-09-03T16:06:20.776Z,100775.25
2022-09-03T16:11:01.862Z,100780.78
2022-09-03T16:15:18.253Z,100783.75
2022-09-03T16:19:58.901Z,100787.34
2022-09-03T16:24:45.987Z,100783.50
2022-09-03T16:29:07.614Z,100779.78
2022-09-03T16:33:43.067Z,100787.41
2022-09-03T16:38:36.365Z,100784.38
2022-09-03T16:43:23.618Z,100786.59
2022-09-03T16:47:50.238Z,100783.81
2022-09-03T16:52:07.911Z,100791.75
2022-09-03T16:56:38.613Z,100787.00
2022-09-03T17:01:06.793Z,100798.03
2022-09-03T17:05:36.885Z,100775.75
2022-09-03T17:10:07.630Z,100779.31
2022-09-03T17:14:50.618Z,100780.06
2022-09-03T17:19:22.974Z,100790.47
2022-09-03T17:23:40.833Z,100791.75
2022-09-03T17:28:22.709Z,100802.66
2022-09-03T17:33:06.466Z,100803.66
2022-09-03T17:37:57.067Z,100804.06
2022-09-03T17:42:23.734Z,100793.75
2022-09-03T17:46:53.647Z,100805.00
2022-09-03T17:51:08.857Z,100812.78
2022-09-03T17:55:37.488Z,100816.19
2022-09-03T17:59:57.729Z,100810.47
2022-09-03T18:04:24.688Z,100835.25
2022-09-03T18:09:11.979Z,100840.59
2022-09-03T18:13:34.991Z,100829.44
2022-09-03T18:18:02.879Z,100845.81
2022-09-03T18:22:34.062Z,100842.75
2022-09-03T18:27:20.586Z,100843.84
2022-09-03T18:31:50.945Z,100850.97
2022-09-03T18:36:21.679Z,100866.44
2022-09-03T18:41:07.838Z,100878.22
2022-09-03T18:46:17.565Z,100880.28
2022-09-03T18:50:46.479Z,100878.41
2022-09-03T18:55:41.849Z,100894.03
2022-09-03T19:00:23.329Z,100882.75
2022-09-03T19:05:33.563Z,100889.47
2022-09-03T19:10:30.004Z,100904.75
2022-09-03T19:15:09.376Z,100898.13
2022-09-03T19:20:08.767Z,100909.94
2022-09-03T19:24:45.123Z,100903.19
2022-09-03T19:29:22.308Z,100895.00
2022-09-03T19:34:20.596Z,100904.75
2022-09-03T19:39:12.702Z,100921.31
2022-09-03T19:43:51.461Z,100923.25
2022-09-03T19:48:45.838Z,100924.34
2022-09-03T19:53:23.811Z,100939.69
2022-09-03T19:57:53.961Z,100925.78
2022-09-03T20:02:26.885Z,100927.59
2022-09-03T20:06:57.560Z,100939.75
2022-09-03T20:11:18.590Z,100940.44
2022-09-03T20:15:42.759Z,100937.09
2022-09-03T20:20:25.260Z,100941.66
2022-09-03T20:25:02.353Z,100953.50
2022-09-03T20:29:29.133Z,100943.34
2022-09-03T20:33:56.741Z,100952.75
2022-09-03T20:38:42.223Z,100969.78
2022-09-03T20:43:24.026Z,100961.78
2022-09-03T20:48:00.144Z,100968.38
2022-09-03T20:52:32.815Z,100953.28
2022-09-03T20:57:09.837Z,100964.81
2022-09-03T21:01:39.040Z,100970.38
2022-09-03T21:06:24.491Z,100974.06
2022-09-03T21:10:51.738Z,100972.59
2022-09-03T21:15:35.652Z,100979.53
2022-09-03T21:20:05.798Z,100985.66
2022-09-03T21:24:48.023Z,100997.63
2022-09-03T21:29:08.896Z,100981.28
2022-09-03T21:33:26.814Z,101005.25
2022-09-03T21:37:41.965Z,100991.34
2022-09-03T21:42:03.256Z,101004.16
2022-09-03T21:46:49.817Z,100990.31
2022-09-03T21:51:07.265Z,100998.50
2022-09-03T21:55:26.693Z,100993.16
2022-09-03T21:59:57.826Z,101018.47
2022-09-03T22:04:09.593Z,101016.09
2022-09-03T22:08:36.315Z,101006.88
2022-09-03T22:13:09.463Z,101029.22
2022-09-03T22:17:47.090Z,101032.28
2022-09-03T22:22:01.055Z,101023.69
2022-09-03T22:26:37.221Z,101047.72
2022-09-03T22:31:28.162Z,101040.69
2022-09-03T22:36:03.018Z,101034.78
2022-09-03T22:40:25.107Z,101035.06
2022-09-03T22:44:54.940Z,101041.34
2022-09-03T22:49:45.440Z,101042.72
2022-09-03T22:54:16.977Z,101044.44
2022-09-03T22:58:35.108Z,101034.69
2022-09-03T23:02:55.016Z,101057.63
2022-09-03T23:07:18.879Z,101054.69
2022-09-03T23:11:57.447Z,101044.91
2022-09-03T23:16:15.128Z,101063.47
2022-09-03T23:20:29.354Z,101053.19
2022-09-03T23:24:46.901Z,101054.59
2022-09-03T23:29:11.447Z,101067.16
2022-09-03T23:33:23.177Z,101073.22
2022-09-03T23:37:43.893Z,101053.63
2022-09-03T23:42:13.962Z,101074.34
2022-09-03T23:46:33.783Z,101066.44
2022-09-03T23:51:16.490Z,101065.91
2022-09-03T23:55:43.954Z,101077.06
